Time;durP1;ratioP1;P1;durP2;ratioP2;P2;SDS_P1;SDS_P2;PMS_P1;PMS_P2;Temp;Humidity;BMP_temperature;BMP_pressure;BME280_temperature;BME280_humidity;BME280_pressure;Samples;Min_cycle;Max_cycle;Signal;HPM_P1;HPM_P2
2022/02/16 00:00:07;;;;;;;3.40;1.00;;;7.70;99.90;;;;;;5094341;28;20389;-67
2022/02/16 00:02:33;;;;;;;3.08;0.95;;;7.70;99.90;;;;;;5094014;28;20113;-66
2022/02/16 00:04:58;;;;;;;3.30;0.80;;;7.60;99.90;;;;;;5094977;28;20418;-65
2022/02/16 00:07:24;;;;;;;5.07;1.27;;;7.60;99.90;;;;;;5093004;28;20031;-66
2022/02/16 00:09:49;;;;;;;4.03;1.13;;;7.70;99.90;;;;;;5093955;28;20039;-66
2022/02/16 00:12:15;;;;;;;3.60;1.13;;;7.60;99.90;;;;;;5094144;28;20385;-66
2022/02/16 00:14:41;;;;;;;7.50;1.07;;;7.70;99.90;;;;;;5094159;28;20020;-66
2022/02/16 00:17:06;;;;;;;5.17;1.13;;;7.60;99.90;;;;;;5094062;28;20024;-67
2022/02/16 00:19:32;;;;;;;1.27;0.80;;;7.70;99.90;;;;;;5093793;28;20455;-66
2022/02/16 00:21:57;;;;;;;2.50;0.80;;;7.70;99.90;;;;;;5093877;28;20028;-66
2022/02/16 00:24:23;;;;;;;4.93;0.90;;;7.70;99.90;;;;;;5093985;28;20027;-66
2022/02/16 00:26:49;;;;;;;5.57;0.70;;;7.60;99.90;;;;;;5093911;28;20027;-66
2022/02/16 00:29:14;;;;;;;4.33;1.17;;;7.70;99.90;;;;;;5094380;28;20027;-67
2022/02/16 00:31:41;;;;;;;5.15;1.08;;;7.60;99.90;;;;;;5093016;28;20024;-66
2022/02/16 00:34:07;;;;;;;3.70;1.13;;;7.70;99.90;;;;;;5094090;28;20424;-67
2022/02/16 00:36:33;;;;;;;4.47;1.40;;;7.70;99.90;;;;;;5094086;28;20102;-67
2022/02/16 00:39:00;;;;;;;3.67;0.80;;;7.70;99.90;;;;;;5094011;28;20454;-67
2022/02/16 00:41:26;;;;;;;5.45;1.02;;;7.70;99.90;;;;;;5093672;28;20032;-67
2022/02/16 00:43:52;;;;;;;2.70;0.70;;;7.70;99.90;;;;;;5094454;28;20027;-66
2022/02/16 00:46:17;;;;;;;3.63;1.23;;;7.70;99.90;;;;;;5094463;28;20020;-67
2022/02/16 00:48:43;;;;;;;5.65;1.05;;;7.70;99.90;;;;;;5094211;28;20065;-66
2022/02/16 00:51:09;;;;;;;3.17;1.17;;;7.70;99.90;;;;;;5095542;28;20024;-66
2022/02/16 00:53:34;;;;;;;7.33;1.13;;;7.70;99.90;;;;;;5094215;28;20262;-66
2022/02/16 00:56:00;;;;;;;4.27;1.63;;;7.70;99.90;;;;;;5094024;28;20055;-66
2022/02/16 00:58:26;;;;;;;3.37;0.80;;;7.70;99.90;;;;;;5092805;28;20028;-66
2022/02/16 01:00:52;;;;;;;4.80;0.88;;;7.70;99.90;;;;;;5092656;28;20024;-66
2022/02/16 01:03:18;;;;;;;2.38;0.93;;;7.70;99.90;;;;;;5092282;28;20046;-65
2022/02/16 01:05:45;;;;;;;3.55;1.00;;;7.80;99.90;;;;;;5092182;28;20421;-65
2022/02/16 01:08:12;;;;;;;3.90;1.13;;;7.70;99.90;;;;;;5093405;28;20028;-66
2022/02/16 01:10:39;;;;;;;3.97;0.90;;;7.70;99.90;;;;;;5093453;28;20442;-66
2022/02/16 01:13:04;;;;;;;2.42;0.70;;;7.70;99.90;;;;;;5093555;28;20020;-66
2022/02/16 01:15:30;;;;;;;2.60;0.90;;;7.80;99.90;;;;;;5093256;28;20098;-66
2022/02/16 01:17:55;;;;;;;1.30;0.63;;;7.70;99.90;;;;;;5093369;28;20482;-66
2022/02/16 01:20:21;;;;;;;3.77;1.07;;;7.80;99.90;;;;;;5093738;28;20259;-67
2022/02/16 01:22:47;;;;;;;6.27;0.73;;;7.70;99.90;;;;;;5093132;28;20441;-66
2022/02/16 01:25:13;;;;;;;2.40;0.60;;;7.80;99.90;;;;;;5092007;28;20061;-66
2022/02/16 01:27:39;;;;;;;3.45;1.00;;;7.80;99.90;;;;;;5093151;28;20020;-66
2022/02/16 01:30:06;;;;;;;1.30;0.70;;;7.80;99.90;;;;;;5093205;28;20098;-66
2022/02/16 01:32:32;;;;;;;5.10;0.80;;;7.70;99.90;;;;;;5093105;28;20071;-66
2022/02/16 01:34:58;;;;;;;1.75;0.70;;;7.80;99.90;;;;;;5092425;28;20028;-67
2022/02/16 01:37:24;;;;;;;5.03;0.77;;;7.70;99.90;;;;;;5093535;28;20488;-66
2022/02/16 01:39:49;;;;;;;1.13;0.73;;;7.70;99.90;;;;;;5092973;28;20389;-66
2022/02/16 01:42:19;;;;;;;1.67;0.50;;;7.70;99.90;;;;;;5092801;28;20032;-66
2022/02/16 01:44:46;;;;;;;1.67;0.70;;;7.60;99.90;;;;;;5094853;28;20063;-67
2022/02/16 01:47:12;;;;;;;2.60;0.98;;;7.60;99.90;;;;;;5096689;28;20031;-66
2022/02/16 01:49:40;;;;;;;2.03;0.60;;;7.60;99.90;;;;;;5095129;28;20021;-67
2022/02/16 01:52:07;;;;;;;1.75;0.73;;;7.50;99.90;;;;;;5095079;28;20053;-66
2022/02/16 01:54:33;;;;;;;2.55;0.80;;;7.60;99.90;;;;;;5097085;28;20397;-66
2022/02/16 01:56:59;;;;;;;2.05;0.63;;;7.50;99.90;;;;;;5096546;28;20024;-66
2022/02/16 01:59:25;;;;;;;2.15;0.65;;;7.50;99.90;;;;;;5096601;28;20496;-66
2022/02/16 02:01:52;;;;;;;4.70;1.38;;;7.50;99.90;;;;;;5096165;28;20047;-65
2022/02/16 02:04:19;;;;;;;2.17;0.60;;;7.50;99.90;;;;;;5095092;28;20024;-65
2022/02/16 02:06:45;;;;;;;2.15;0.57;;;7.50;99.90;;;;;;5096311;28;20081;-65
2022/02/16 02:09:11;;;;;;;3.53;0.82;;;7.40;99.90;;;;;;5094769;28;20032;-66
2022/02/16 02:11:37;;;;;;;1.17;0.68;;;7.30;99.90;;;;;;5096136;28;20039;-66
2022/02/16 02:14:05;;;;;;;3.80;0.70;;;7.30;99.90;;;;;;5094940;28;20385;-66
2022/02/16 02:16:32;;;;;;;2.53;1.45;;;7.30;99.90;;;;;;5094710;28;20028;-66
2022/02/16 02:18:58;;;;;;;1.40;0.47;;;7.30;99.90;;;;;;5094807;28;20110;-66
2022/02/16 02:21:24;;;;;;;;;;;7.30;99.90;;;;;;5096371;28;20119;-66
2022/02/16 02:23:51;;;;;;;1.90;0.90;;;7.30;99.90;;;;;;5096063;28;19962;-66
2022/02/16 02:26:17;;;;;;;;;;;7.20;99.90;;;;;;5096258;28;20073;-66
2022/02/16 02:28:44;;;;;;;2.65;0.70;;;7.20;99.90;;;;;;5095984;28;20003;-66
2022/02/16 02:31:10;;;;;;;3.45;0.70;;;7.10;99.90;;;;;;5096044;28;20028;-66
2022/02/16 02:33:38;;;;;;;3.47;0.80;;;7.10;99.90;;;;;;5094615;28;20062;-66
2022/02/16 02:36:08;;;;;;;3.40;0.70;;;7.10;99.90;;;;;;5096409;28;20477;-66
2022/02/16 02:38:34;;;;;;;3.25;0.68;;;7.10;99.90;;;;;;5097878;28;20497;-66
2022/02/16 02:41:02;;;;;;;2.35;0.63;;;7.10;99.90;;;;;;5099807;28;20107;-66
2022/02/16 02:43:29;;;;;;;2.50;0.70;;;7.00;99.90;;;;;;5095248;28;20042;-67
2022/02/16 02:45:55;;;;;;;2.80;0.80;;;7.00;99.90;;;;;;5095628;28;20397;-67
2022/02/16 02:48:23;;;;;;;2.92;0.75;;;7.00;99.90;;;;;;5094299;28;20445;-66
2022/02/16 02:50:51;;;;;;;4.30;1.00;;;7.00;99.90;;;;;;5095557;28;20078;-67
2022/02/16 02:53:17;;;;;;;0.75;0.50;;;7.00;99.90;;;;;;5095700;28;20421;-67
2022/02/16 02:55:42;;;;;;;4.05;0.90;;;7.00;99.90;;;;;;5094747;28;20024;-66
2022/02/16 02:58:08;;;;;;;5.18;0.88;;;7.00;99.90;;;;;;5094068;28;20035;-66
2022/02/16 03:00:34;;;;;;;3.58;0.60;;;7.00;99.90;;;;;;5094045;28;20024;-66
2022/02/16 03:03:00;;;;;;;3.13;0.70;;;7.00;99.90;;;;;;5095302;28;20103;-66
2022/02/16 03:05:25;;;;;;;3.73;0.60;;;7.00;99.90;;;;;;5095074;28;20112;-67
2022/02/16 03:07:51;;;;;;;4.23;0.90;;;6.90;99.90;;;;;;5094153;28;20530;-67
2022/02/16 03:10:17;;;;;;;4.85;0.88;;;6.90;99.90;;;;;;5094261;28;20119;-66
2022/02/16 03:12:43;;;;;;;4.55;1.05;;;6.90;99.90;;;;;;5095243;28;20106;-65
2022/02/16 03:15:09;;;;;;;3.33;0.63;;;6.90;99.90;;;;;;5094033;28;20169;-66
2022/02/16 03:17:34;;;;;;;6.57;0.95;;;6.90;99.90;;;;;;5095107;28;20028;-66
2022/02/16 03:20:00;;;;;;;4.27;0.90;;;6.90;99.90;;;;;;5093596;28;20101;-66
2022/02/16 03:22:26;;;;;;;2.70;0.60;;;6.90;99.90;;;;;;5094768;28;20027;-65
2022/02/16 03:24:52;;;;;;;2.83;0.87;;;6.90;99.90;;;;;;5094794;28;20389;-66
2022/02/16 03:27:17;;;;;;;2.50;0.82;;;6.90;99.90;;;;;;5094652;28;20027;-66
2022/02/16 03:29:43;;;;;;;3.60;0.83;;;6.90;99.90;;;;;;5094623;28;20446;-66
2022/02/16 03:32:09;;;;;;;6.40;0.77;;;6.90;99.90;;;;;;5094716;28;20497;-66
2022/02/16 03:34:34;;;;;;;2.90;0.70;;;7.00;99.90;;;;;;5094902;28;20358;-66
2022/02/16 03:37:00;;;;;;;3.85;0.70;;;6.90;99.90;;;;;;5094026;28;20028;-66
2022/02/16 03:39:26;;;;;;;2.90;0.83;;;6.90;99.90;;;;;;5093326;28;20059;-66
2022/02/16 03:41:51;;;;;;;1.33;0.57;;;6.90;99.90;;;;;;5095211;28;20031;-66
2022/02/16 03:44:17;;;;;;;3.40;0.75;;;7.00;99.90;;;;;;5093470;28;20021;-67
2022/02/16 03:46:43;;;;;;;3.85;0.60;;;6.90;99.90;;;;;;5094487;28;20024;-66
2022/02/16 03:49:09;;;;;;;1.42;0.80;;;7.00;99.90;;;;;;5094414;28;20392;-66
2022/02/16 03:51:35;;;;;;;4.43;0.60;;;7.00;99.90;;;;;;5094626;28;20046;-66
2022/02/16 03:54:01;;;;;;;2.97;0.80;;;7.00;99.90;;;;;;5094158;28;20024;-65
2022/02/16 03:56:26;;;;;;;4.05;1.25;;;7.00;99.90;;;;;;5093153;28;20073;-66
2022/02/16 03:58:52;;;;;;;3.00;0.70;;;7.00;99.90;;;;;;5094554;28;20040;-66
2022/02/16 04:01:18;;;;;;;0.80;0.50;;;7.00;99.90;;;;;;5095449;28;20552;-67
2022/02/16 04:03:44;;;;;;;1.45;0.55;;;7.00;99.90;;;;;;5095193;28;20099;-67
2022/02/16 04:06:09;;;;;;;2.53;0.60;;;7.00;99.90;;;;;;5093074;28;20545;-66
2022/02/16 04:08:35;;;;;;;1.70;0.63;;;7.00;99.90;;;;;;5092737;28;20437;-66
2022/02/16 04:11:01;;;;;;;2.53;0.50;;;7.00;99.90;;;;;;5094557;28;20077;-67
2022/02/16 04:13:26;;;;;;;2.47;0.73;;;7.00;99.90;;;;;;5094046;28;20032;-67
2022/02/16 04:15:52;;;;;;;4.17;0.83;;;7.00;99.90;;;;;;5094179;28;20020;-66
2022/02/16 04:18:18;;;;;;;3.53;0.60;;;6.90;99.90;;;;;;5092906;28;20028;-65
2022/02/16 04:20:43;;;;;;;2.10;0.60;;;7.00;99.90;;;;;;5094179;28;20107;-66
2022/02/16 04:23:09;;;;;;;3.83;0.80;;;6.90;99.90;;;;;;5093833;28;20031;-66
2022/02/16 04:25:36;;;;;;;2.10;0.50;;;7.00;99.90;;;;;;5092504;28;20016;-66
2022/02/16 04:28:04;;;;;;;2.72;0.57;;;7.00;99.90;;;;;;5093877;28;20050;-65
2022/02/16 04:30:31;;;;;;;1.75;0.50;;;7.00;99.90;;;;;;5093948;28;20358;-66
2022/02/16 04:32:57;;;;;;;;;;;7.00;99.90;;;;;;5094009;28;20038;-67
2022/02/16 04:35:22;;;;;;;2.05;0.57;;;7.00;99.90;;;;;;5092244;28;19904;-66
2022/02/16 04:37:48;;;;;;;3.23;0.50;;;7.00;99.90;;;;;;5092363;28;20043;-66
2022/02/16 04:40:14;;;;;;;2.00;0.50;;;7.10;99.90;;;;;;5093474;28;20020;-66
2022/02/16 04:42:40;;;;;;;3.25;0.60;;;7.00;99.90;;;;;;5093547;28;20437;-66
2022/02/16 04:45:06;;;;;;;2.30;0.68;;;7.00;99.90;;;;;;5092248;28;20107;-66
2022/02/16 04:47:32;;;;;;;1.02;0.40;;;7.00;99.90;;;;;;5093310;28;20067;-66
2022/02/16 04:49:58;;;;;;;1.42;0.55;;;7.10;99.90;;;;;;5092110;28;20036;-66
2022/02/16 04:52:34;;;;;;;2.50;0.73;;;7.10;99.90;;;;;;5093353;28;20133;-66
2022/02/16 04:55:04;;;;;;;2.92;0.55;;;7.10;99.90;;;;;;5093471;28;20030;-66
2022/02/16 04:57:30;;;;;;;1.85;0.52;;;7.20;99.90;;;;;;5093255;28;20535;-66
2022/02/16 04:59:58;;;;;;;1.53;0.40;;;7.20;99.90;;;;;;5091940;28;20027;-66
2022/02/16 05:02:25;;;;;;;1.15;0.40;;;7.20;99.90;;;;;;5092479;28;20028;-66
2022/02/16 05:04:54;;;;;;;1.25;0.40;;;7.20;99.90;;;;;;5094001;28;20028;-66
2022/02/16 05:07:21;;;;;;;2.03;0.60;;;7.30;99.90;;;;;;5094979;28;20384;-65
2022/02/16 05:09:46;;;;;;;1.48;0.57;;;7.30;99.90;;;;;;5091973;28;20473;-66
2022/02/16 05:12:12;;;;;;;2.97;0.93;;;7.30;99.90;;;;;;5093179;28;20034;-66
2022/02/16 05:14:38;;;;;;;1.63;0.28;;;7.30;99.90;;;;;;5093228;28;20262;-66
2022/02/16 05:17:04;;;;;;;2.60;1.20;;;7.30;99.90;;;;;;5092450;28;20028;-67
2022/02/16 05:19:30;;;;;;;3.40;0.40;;;7.30;99.90;;;;;;5094738;28;20034;-68
2022/02/16 05:21:56;;;;;;;1.90;0.30;;;7.30;99.90;;;;;;5097351;28;20278;-67
2022/02/16 05:24:22;;;;;;;1.85;0.47;;;7.30;99.90;;;;;;5096771;28;20024;-67
2022/02/16 05:26:48;;;;;;;1.00;0.60;;;7.40;99.90;;;;;;5096967;28;20039;-67
2022/02/16 05:29:14;;;;;;;1.48;0.57;;;7.40;99.90;;;;;;5096823;28;20045;-67
2022/02/16 05:31:40;;;;;;;3.08;0.40;;;7.40;99.90;;;;;;5096727;28;20036;-67
2022/02/16 05:34:05;;;;;;;0.98;0.40;;;7.40;99.90;;;;;;5096597;28;20032;-67
2022/02/16 05:36:31;;;;;;;0.50;0.40;;;7.50;99.90;;;;;;5097262;28;20028;-67
2022/02/16 05:38:57;;;;;;;1.55;0.50;;;7.50;99.90;;;;;;5096975;28;20024;-63
2022/02/16 05:41:22;;;;;;;1.40;0.40;;;7.60;99.90;;;;;;5095263;28;20035;-70
2022/02/16 05:43:51;;;;;;;1.90;0.40;;;7.60;99.90;;;;;;5096929;28;20023;-69
2022/02/16 05:46:17;;;;;;;0.88;0.40;;;7.60;99.90;;;;;;5096091;28;20026;-68
2022/02/16 05:48:42;;;;;;;4.17;0.50;;;7.60;99.90;;;;;;5095445;28;20020;-68
2022/02/16 05:51:08;;;;;;;0.80;0.40;;;7.60;99.90;;;;;;5095313;28;20540;-68
2022/02/16 05:53:34;;;;;;;3.90;0.77;;;7.70;99.90;;;;;;5096729;28;20034;-67
2022/02/16 05:56:00;;;;;;;0.85;0.30;;;7.70;99.90;;;;;;5095519;28;20031;-67
2022/02/16 05:58:25;;;;;;;1.50;0.40;;;7.70;99.90;;;;;;5096665;28;20024;-68
2022/02/16 06:00:51;;;;;;;0.70;0.30;;;7.70;99.90;;;;;;5096375;28;20258;-66
2022/02/16 06:03:17;;;;;;;0.83;0.40;;;7.80;99.90;;;;;;5096150;28;20020;-67
2022/02/16 06:05:42;;;;;;;2.47;0.40;;;7.80;99.90;;;;;;5096329;28;20392;-68
2022/02/16 06:08:08;;;;;;;1.07;0.30;;;7.80;99.90;;;;;;5094702;28;20457;-67
2022/02/16 06:10:33;;;;;;;0.90;0.40;;;7.80;99.90;;;;;;5097578;28;20481;-68
2022/02/16 06:13:00;;;;;;;1.97;0.53;;;7.90;99.90;;;;;;5095873;28;20020;-67
2022/02/16 06:15:27;;;;;;;0.93;0.50;;;7.80;99.90;;;;;;5096225;28;20131;-67
2022/02/16 06:17:53;;;;;;;1.75;0.70;;;7.90;99.90;;;;;;5096043;28;20024;-67
2022/02/16 06:20:18;;;;;;;2.03;0.77;;;7.90;99.90;;;;;;5095956;28;20453;-67
2022/02/16 06:22:44;;;;;;;2.53;0.50;;;7.90;99.90;;;;;;5096201;28;20159;-67
2022/02/16 06:25:10;;;;;;;1.07;0.53;;;7.90;99.90;;;;;;5095768;28;20030;-67
2022/02/16 06:27:35;;;;;;;1.70;0.47;;;7.80;99.90;;;;;;5096038;28;20107;-67
2022/02/16 06:30:05;;;;;;;3.07;0.40;;;7.80;99.90;;;;;;5095274;28;20094;-67
2022/02/16 06:32:31;;;;;;;2.50;1.05;;;7.90;99.90;;;;;;5095792;28;20315;-68
2022/02/16 06:34:57;;;;;;;0.85;0.38;;;7.90;99.90;;;;;;5096083;28;20028;-69
2022/02/16 06:37:23;;;;;;;0.63;0.20;;;7.90;99.90;;;;;;5094404;28;20043;-68
2022/02/16 06:39:49;;;;;;;0.90;0.30;;;7.90;99.90;;;;;;5094340;28;20123;-67
2022/02/16 06:42:15;;;;;;;1.25;0.40;;;7.90;99.90;;;;;;5095385;28;20460;-68
2022/02/16 06:44:40;;;;;;;1.60;0.43;;;7.90;99.90;;;;;;5094481;28;20043;-67
2022/02/16 06:47:07;;;;;;;2.03;0.40;;;7.90;99.90;;;;;;5094718;28;20021;-69
2022/02/16 06:49:32;;;;;;;1.40;0.95;;;7.90;99.90;;;;;;5095445;28;20265;-68
2022/02/16 06:51:58;;;;;;;2.17;0.50;;;7.90;99.90;;;;;;5095137;28;20036;-68
2022/02/16 06:54:23;;;;;;;0.93;0.50;;;7.80;99.90;;;;;;5093863;28;20405;-67
2022/02/16 06:56:49;;;;;;;1.27;0.50;;;7.80;99.90;;;;;;5094254;28;20416;-68
2022/02/16 06:59:15;;;;;;;1.03;0.43;;;7.70;99.90;;;;;;5095193;28;20077;-67
2022/02/16 07:01:40;;;;;;;1.97;0.37;;;7.80;99.90;;;;;;5095349;28;20472;-66
2022/02/16 07:04:06;;;;;;;0.33;0.30;;;7.80;99.90;;;;;;5094015;28;20016;-67
2022/02/16 07:06:32;;;;;;;0.80;0.40;;;7.80;99.90;;;;;;5093593;28;20027;-69
2022/02/16 07:08:58;;;;;;;0.75;0.40;;;7.80;99.90;;;;;;5093630;28;20032;-68
2022/02/16 07:11:24;;;;;;;2.03;0.38;;;7.80;99.90;;;;;;5095160;28;20078;-69
2022/02/16 07:13:50;;;;;;;0.57;0.30;;;7.80;99.90;;;;;;5093527;28;20397;-68
2022/02/16 07:16:16;;;;;;;1.95;0.40;;;7.80;99.90;;;;;;5095114;28;20032;-67
2022/02/16 07:18:43;;;;;;;0.93;0.40;;;7.80;99.90;;;;;;5093405;28;20051;-68
2022/02/16 07:21:09;;;;;;;2.03;0.40;;;7.80;99.90;;;;;;5093436;28;20055;-68
2022/02/16 07:23:36;;;;;;;2.97;0.40;;;7.80;99.90;;;;;;5093872;28;20024;-68
2022/02/16 07:26:03;;;;;;;0.60;0.40;;;7.90;99.90;;;;;;5095105;28;20103;-67
2022/02/16 07:28:28;;;;;;;;;;;7.90;99.90;;;;;;5094783;28;20016;-68
2022/02/16 07:30:54;;;;;;;2.55;1.10;;;7.90;99.90;;;;;;5094433;28;19904;-69
2022/02/16 07:33:19;;;;;;;1.50;0.40;;;7.90;99.90;;;;;;5094860;28;20017;-67
2022/02/16 07:35:45;;;;;;;1.27;0.60;;;7.90;99.90;;;;;;5094485;28;20020;-67
2022/02/16 07:38:11;;;;;;;1.92;0.40;;;7.90;99.90;;;;;;5093702;28;20056;-68
2022/02/16 07:40:36;;;;;;;2.63;0.40;;;7.90;99.90;;;;;;5098340;28;20056;-67
2022/02/16 07:43:03;;;;;;;1.17;0.60;;;7.90;99.90;;;;;;5093827;28;20054;-68
2022/02/16 07:45:28;;;;;;;0.70;0.40;;;8.00;99.90;;;;;;5094274;28;20311;-67
2022/02/16 07:47:55;;;;;;;0.80;0.40;;;8.00;99.90;;;;;;5094049;28;20020;-67
2022/02/16 07:50:20;;;;;;;1.58;0.57;;;8.00;99.90;;;;;;5094287;28;20016;-68
2022/02/16 07:52:46;;;;;;;2.40;0.85;;;7.90;99.90;;;;;;5092803;28;20031;-68
2022/02/16 07:55:12;;;;;;;1.85;0.60;;;7.90;99.90;;;;;;5094875;28;20461;-68
2022/02/16 07:57:38;;;;;;;1.48;0.68;;;7.90;99.90;;;;;;5094258;28;20039;-67
2022/02/16 08:00:06;;;;;;;1.38;0.65;;;7.80;99.90;;;;;;5093772;28;20024;-68
2022/02/16 08:02:31;;;;;;;3.35;1.05;;;7.80;99.90;;;;;;5094237;28;20032;-67
2022/02/16 08:04:57;;;;;;;2.00;0.57;;;7.90;99.90;;;;;;5094246;28;20112;-67
2022/02/16 08:07:23;;;;;;;1.92;1.05;;;7.90;99.90;;;;;;5092484;28;20065;-68
2022/02/16 08:09:49;;;;;;;1.93;0.87;;;7.90;99.90;;;;;;5093778;28;20391;-67
2022/02/16 08:12:15;;;;;;;2.45;0.90;;;8.00;99.90;;;;;;5093876;28;20035;-68
2022/02/16 08:14:40;;;;;;;1.70;1.00;;;7.90;99.90;;;;;;5092442;28;20060;-68
2022/02/16 08:17:06;;;;;;;3.00;0.60;;;8.00;99.90;;;;;;5094091;28;20028;-68
2022/02/16 08:19:32;;;;;;;1.38;0.40;;;8.00;99.90;;;;;;5093940;28;20066;-67
2022/02/16 08:21:58;;;;;;;2.53;0.88;;;8.10;99.90;;;;;;5094017;28;20032;-67
2022/02/16 08:24:25;;;;;;;0.77;0.38;;;8.10;99.90;;;;;;5094755;28;20031;-68
2022/02/16 08:26:52;;;;;;;2.03;0.50;;;8.10;99.90;;;;;;5095581;28;20440;-67
2022/02/16 08:29:19;;;;;;;0.60;0.30;;;8.10;99.90;;;;;;5095917;28;20031;-67
2022/02/16 08:31:46;;;;;;;0.88;0.50;;;8.20;99.90;;;;;;5095179;28;20028;-67
2022/02/16 08:34:12;;;;;;;0.47;0.40;;;8.30;99.90;;;;;;5093970;28;20035;-67
2022/02/16 08:36:37;;;;;;;0.88;0.32;;;8.30;99.90;;;;;;5093848;28;20020;-68
2022/02/16 08:39:04;;;;;;;0.77;0.47;;;8.30;99.90;;;;;;5092956;28;20119;-67
2022/02/16 08:41:29;;;;;;;1.23;0.50;;;8.30;99.90;;;;;;5093613;28;20055;-67
2022/02/16 08:43:55;;;;;;;0.50;0.40;;;8.40;99.90;;;;;;5093736;28;20043;-67
2022/02/16 08:46:21;;;;;;;1.60;0.60;;;8.40;99.90;;;;;;5093637;28;20376;-67
2022/02/16 08:48:47;;;;;;;1.47;0.43;;;8.40;99.90;;;;;;5093940;28;20616;-68
2022/02/16 08:51:13;;;;;;;3.25;1.15;;;8.50;99.90;;;;;;5093551;28;20073;-68
2022/02/16 08:53:38;;;;;;;2.30;0.88;;;8.50;99.90;;;;;;5095781;28;20024;-68
2022/02/16 08:56:06;;;;;;;2.17;0.70;;;8.50;99.90;;;;;;5097827;28;20080;-67
2022/02/16 08:58:32;;;;;;;2.33;0.52;;;8.60;99.90;;;;;;5096384;28;20289;-67
2022/02/16 09:00:57;;;;;;;1.75;0.60;;;8.60;99.90;;;;;;5097424;28;20051;-67
2022/02/16 09:03:24;;;;;;;2.28;0.82;;;8.70;99.90;;;;;;5097656;28;20461;-66
2022/02/16 09:05:50;;;;;;;0.80;0.50;;;8.90;99.90;;;;;;5096193;28;20024;-68
2022/02/16 09:08:17;;;;;;;1.00;0.52;;;9.10;99.90;;;;;;5097609;28;20480;-67
2022/02/16 09:10:43;;;;;;;1.15;0.60;;;9.20;99.90;;;;;;5097790;28;20492;-69
2022/02/16 09:13:08;;;;;;;0.90;0.40;;;9.20;99.90;;;;;;5097341;28;20023;-67
2022/02/16 09:15:35;;;;;;;1.02;0.40;;;9.10;99.90;;;;;;5096966;28;20024;-67
2022/02/16 09:18:00;;;;;;;0.68;0.30;;;9.10;99.90;;;;;;5097183;28;20016;-67
2022/02/16 09:20:26;;;;;;;0.50;0.40;;;9.20;99.90;;;;;;5095687;28;20043;-68
2022/02/16 09:22:52;;;;;;;0.88;0.50;;;9.20;99.90;;;;;;5097544;28;20074;-68
2022/02/16 09:25:18;;;;;;;0.67;0.40;;;9.20;99.90;;;;;;5096214;28;20521;-67
2022/02/16 09:27:44;;;;;;;2.28;0.40;;;9.30;99.90;;;;;;5095816;28;20739;-66
2022/02/16 09:30:10;;;;;;;0.90;0.40;;;9.40;99.90;;;;;;5095485;28;20029;-67
2022/02/16 09:32:36;;;;;;;0.80;0.50;;;9.40;99.90;;;;;;5096584;28;20028;-67
2022/02/16 09:35:03;;;;;;;0.45;0.28;;;9.40;99.90;;;;;;5097340;28;20040;-68
2022/02/16 09:37:28;;;;;;;0.57;0.40;;;9.50;99.90;;;;;;5096707;28;20024;-68
2022/02/16 09:39:54;;;;;;;2.43;0.37;;;9.70;99.90;;;;;;5095376;28;20079;-68
2022/02/16 09:42:20;;;;;;;0.40;0.40;;;9.80;99.90;;;;;;5098294;28;20027;-68
2022/02/16 09:45:04;;;;;;;0.52;0.30;;;9.80;99.90;;;;;;5098605;28;20028;-67
2022/02/16 09:47:31;;;;;;;0.57;0.50;;;9.80;99.90;;;;;;5096961;28;20101;-67
2022/02/16 09:49:58;;;;;;;1.20;0.40;;;9.90;99.90;;;;;;5097429;28;20030;-68
2022/02/16 09:52:24;;;;;;;1.23;0.50;;;9.90;99.90;;;;;;5097049;28;20024;-68
2022/02/16 09:54:50;;;;;;;0.77;0.40;;;9.80;99.90;;;;;;5096312;28;20032;-67
2022/02/16 09:57:16;;;;;;;1.00;0.30;;;9.80;99.90;;;;;;5096622;28;20024;-67
2022/02/16 09:59:42;;;;;;;3.67;0.70;;;9.90;99.90;;;;;;5094767;28;20085;-67
2022/02/16 10:02:14;;;;;;;1.17;0.40;;;9.90;99.90;;;;;;5096724;28;20028;-68
2022/02/16 10:04:51;;;;;;;1.42;0.40;;;10.00;99.90;;;;;;5096202;28;20404;-67
2022/02/16 10:07:25;;;;;;;;;;;10.00;99.90;;;;;;5095181;28;20044;-66
2022/02/16 10:09:51;;;;;;;0.43;0.30;;;10.10;99.90;;;;;;5094687;28;19983;-67
2022/02/16 10:12:17;;;;;;;2.25;0.60;;;10.20;99.90;;;;;;5094876;28;20140;-68
2022/02/16 10:14:44;;;;;;;0.98;0.32;;;10.30;99.90;;;;;;5096060;28;20074;-66
2022/02/16 10:17:26;;;;;;;0.50;0.40;;;10.50;99.90;;;;;;5094807;28;20374;-67
2022/02/16 10:19:52;;;;;;;0.55;0.40;;;10.80;99.90;;;;;;5095419;28;20085;-67
2022/02/16 10:22:21;;;;;;;0.63;0.30;;;11.30;99.90;;;;;;5095775;28;20017;-67
2022/02/16 10:24:47;;;;;;;1.13;0.50;;;11.50;99.90;;;;;;5095508;28;20021;-67
2022/02/16 10:27:13;;;;;;;;;;;11.70;99.90;;;;;;5094580;28;20020;-67
2022/02/16 10:29:41;;;;;;;0.52;0.30;;;11.80;99.90;;;;;;5093716;28;19904;-67
2022/02/16 10:32:08;;;;;;;1.70;0.55;;;12.00;99.90;;;;;;5095487;28;20048;-67
2022/02/16 10:34:49;;;;;;;0.57;0.35;;;12.20;99.90;;;;;;5095570;28;20104;-67
2022/02/16 10:37:17;;;;;;;0.57;0.40;;;12.30;99.90;;;;;;5093895;28;20119;-67
2022/02/16 10:40:02;;;;;;;0.30;0.28;;;12.60;99.90;;;;;;5093639;28;20074;-68
2022/02/16 10:42:30;;;;;;;0.70;0.50;;;12.80;99.90;;;;;;5095308;28;20020;-68
2022/02/16 10:45:11;;;;;;;1.50;0.43;;;12.60;99.90;;;;;;5095503;28;20073;-67
2022/02/16 10:47:57;;;;;;;0.80;0.43;;;12.80;99.90;;;;;;5095360;28;20020;-67
2022/02/16 10:50:27;;;;;;;0.70;0.50;;;12.50;99.90;;;;;;5093612;28;20016;-68
2022/02/16 10:53:02;;;;;;;0.35;0.30;;;12.20;99.90;;;;;;5093537;28;20024;-67
2022/02/16 10:55:47;;;;;;;1.05;0.60;;;12.10;99.90;;;;;;5094758;28;20211;-67
2022/02/16 10:58:21;;;;;;;1.30;0.45;;;12.10;99.90;;;;;;5093578;28;20020;-67
2022/02/16 11:00:50;;;;;;;0.70;0.40;;;12.00;99.90;;;;;;5095181;28;20028;-67
2022/02/16 11:03:31;;;;;;;1.33;0.60;;;11.80;99.90;;;;;;5093504;28;20024;-67
2022/02/16 11:05:59;;;;;;;0.30;0.30;;;11.80;99.90;;;;;;5094708;28;20017;-68
2022/02/16 11:08:27;;;;;;;0.47;0.47;;;11.80;99.90;;;;;;5094799;28;20035;-67
2022/02/16 11:10:53;;;;;;;0.88;0.50;;;11.70;99.90;;;;;;5094647;28;20389;-67
2022/02/16 11:13:26;;;;;;;1.25;0.32;;;11.50;99.90;;;;;;5094783;28;20020;-67
2022/02/16 11:15:53;;;;;;;0.98;0.50;;;11.40;99.90;;;;;;5094688;28;20051;-65
2022/02/16 11:18:22;;;;;;;0.50;0.30;;;11.20;99.90;;;;;;5093049;28;20027;-65
2022/02/16 11:21:08;;;;;;;1.08;0.52;;;11.10;99.90;;;;;;5094537;28;20099;-65
2022/02/16 11:23:47;;;;;;;0.73;0.40;;;11.00;99.90;;;;;;5095132;28;20020;-64
2022/02/16 11:26:35;;;;;;;2.63;0.60;;;11.00;99.90;;;;;;5093194;28;20020;-64
2022/02/16 11:29:05;;;;;;;1.08;0.50;;;10.90;99.90;;;;;;5094814;28;20016;-65
2022/02/16 11:31:37;;;;;;;0.55;0.40;;;10.90;99.90;;;;;;5095054;28;20032;-64
2022/02/16 11:34:16;;;;;;;1.15;0.50;;;10.80;99.90;;;;;;5094974;28;20054;-64
2022/02/16 11:37:02;;;;;;;0.70;0.50;;;10.70;99.90;;;;;;5093367;28;20024;-65
2022/02/16 11:39:49;;;;;;;0.77;0.40;;;10.70;99.90;;;;;;5094668;28;20051;-64
2022/02/16 11:42:18;;;;;;;0.93;0.40;;;10.60;99.90;;;;;;5093076;28;20019;-64
2022/02/16 11:44:50;;;;;;;0.50;0.40;;;10.50;99.90;;;;;;5094910;28;20020;-64
2022/02/16 11:47:34;;;;;;;0.45;0.38;;;10.50;99.90;;;;;;5092902;28;20028;-65
2022/02/16 11:50:05;;;;;;;0.32;0.32;;;10.50;99.90;;;;;;5095140;28;20020;-63
2022/02/16 11:52:50;;;;;;;1.05;0.50;;;10.50;99.90;;;;;;5093750;28;20031;-65
2022/02/16 11:55:22;;;;;;;1.98;0.55;;;10.50;99.90;;;;;;5094216;28;20099;-66
2022/02/16 11:58:10;;;;;;;2.47;0.60;;;10.40;99.90;;;;;;5093251;28;20124;-66
2022/02/16 12:01:00;;;;;;;1.08;0.55;;;10.40;99.90;;;;;;5090238;28;20039;-64
2022/02/16 12:03:33;;;;;;;1.25;0.60;;;10.30;99.90;;;;;;5088829;28;20395;-64
2022/02/16 12:06:03;;;;;;;0.50;0.30;;;10.30;99.90;;;;;;5093832;28;20028;-65
2022/02/16 12:08:36;;;;;;;0.85;0.40;;;10.30;99.90;;;;;;5093412;28;20078;-64
2022/02/16 12:11:21;;;;;;;0.40;0.32;;;10.30;99.90;;;;;;5092260;28;20043;-65
2022/02/16 12:14:02;;;;;;;0.35;0.32;;;10.30;99.90;;;;;;5093608;28;20023;-66
2022/02/16 12:16:45;;;;;;;1.85;0.40;;;10.30;99.90;;;;;;5092239;28;20027;-69
2022/02/16 12:19:16;;;;;;;2.80;0.60;;;10.30;99.90;;;;;;5092080;28;20538;-68
2022/02/16 12:21:53;;;;;;;1.05;0.50;;;10.30;99.90;;;;;;5092076;28;20035;-68
2022/02/16 12:24:22;;;;;;;2.30;0.55;;;10.30;99.90;;;;;;5092209;28;20119;-69
2022/02/16 12:26:56;;;;;;;1.38;0.63;;;10.30;99.90;;;;;;5092159;28;20036;-69
2022/02/16 12:29:24;;;;;;;0.30;0.30;;;10.30;99.90;;;;;;5093973;28;20026;-69
2022/02/16 12:31:53;;;;;;;0.68;0.40;;;10.30;99.90;;;;;;5093488;28;20059;-70
2022/02/16 12:34:27;;;;;;;0.60;0.30;;;10.30;99.90;;;;;;5091976;28;20061;-68
2022/02/16 12:37:01;;;;;;;0.95;0.60;;;10.20;99.90;;;;;;5093262;28;20089;-68
2022/02/16 12:39:28;;;;;;;0.73;0.50;;;10.30;99.90;;;;;;5093329;28;20077;-71
2022/02/16 12:41:59;;;;;;;0.50;0.40;;;10.30;99.90;;;;;;5091948;28;20028;-70
2022/02/16 12:44:30;;;;;;;1.25;0.60;;;10.40;99.90;;;;;;5093808;28;20028;-64
2022/02/16 12:46:55;;;;;;;0.73;0.50;;;10.40;99.90;;;;;;5093044;28;20081;-66
2022/02/16 12:49:23;;;;;;;0.83;0.40;;;10.40;99.90;;;;;;5093166;28;20028;-65
2022/02/16 12:51:52;;;;;;;0.95;0.47;;;10.40;99.90;;;;;;5092976;28;20032;-65
2022/02/16 12:54:23;;;;;;;1.00;0.50;;;10.50;99.90;;;;;;5093267;28;20531;-66
2022/02/16 12:56:52;;;;;;;0.63;0.35;;;10.50;99.90;;;;;;5092191;28;20354;-65